sensor_id;sensor_type;location;lat;lon;timestamp;P1;durP1;ratioP1;P2;durP2;ratioP2
52396;SDS011;38322;53.108;6.308;2023-07-31T05:00:46;6.32;;;0.70;;
52396;SDS011;38322;53.108;6.308;2023-07-31T05:03:12;1.50;;;0.20;;
52396;SDS011;38322;53.108;6.308;2023-07-31T05:05:38;2.03;;;0.50;;
52396;SDS011;38322;53.108;6.308;2023-07-31T05:08:04;4.45;;;0.45;;
52396;SDS011;38322;53.108;6.308;2023-07-31T05:10:29;3.50;;;0.40;;
52396;SDS011;38322;53.108;6.308;2023-07-31T05:12:55;3.45;;;1.65;;
52396;SDS011;38322;53.108;6.308;2023-07-31T05:15:21;3.92;;;0.73;;
52396;SDS011;38322;53.108;6.308;2023-07-31T05:17:47;4.53;;;1.10;;
52396;SDS011;38322;53.108;6.308;2023-07-31T05:20:13;2.55;;;1.00;;
52396;SDS011;38322;53.108;6.308;2023-07-31T05:22:40;1.48;;;0.90;;
52396;SDS011;38322;53.108;6.308;2023-07-31T05:25:06;3.95;;;1.23;;
52396;SDS011;38322;53.108;6.308;2023-07-31T05:27:32;2.78;;;1.08;;
52396;SDS011;38322;53.108;6.308;2023-07-31T05:29:58;3.78;;;1.27;;
52396;SDS011;38322;53.108;6.308;2023-07-31T05:32:24;2.28;;;1.65;;
52396;SDS011;38322;53.108;6.308;2023-07-31T05:34:53;3.83;;;1.42;;
52396;SDS011;38322;53.108;6.308;2023-07-31T05:37:19;5.03;;;1.70;;
52396;SDS011;38322;53.108;6.308;2023-07-31T05:39:44;4.13;;;1.20;;
52396;SDS011;38322;53.108;6.308;2023-07-31T05:42:10;1.58;;;0.80;;
52396;SDS011;38322;53.108;6.308;2023-07-31T05:44:36;4.70;;;1.48;;
52396;SDS011;38322;53.108;6.308;2023-07-31T05:47:02;2.75;;;1.20;;
52396;SDS011;38322;53.108;6.308;2023-07-31T05:49:28;7.85;;;2.67;;
52396;SDS011;38322;53.108;6.308;2023-07-31T05:51:54;7.90;;;3.45;;
52396;SDS011;38322;53.108;6.308;2023-07-31T05:54:20;9.07;;;4.30;;
52396;SDS011;38322;53.108;6.308;2023-07-31T05:56:46;18.13;;;5.80;;
52396;SDS011;38322;53.108;6.308;2023-07-31T05:59:12;18.95;;;4.65;;
52396;SDS011;38322;53.108;6.308;2023-07-31T06:01:38;16.20;;;5.97;;
52396;SDS011;38322;53.108;6.308;2023-07-31T06:04:04;14.10;;;4.90;;
52396;SDS011;38322;53.108;6.308;2023-07-31T06:06:30;15.93;;;5.40;;
52396;SDS011;38322;53.108;6.308;2023-07-31T06:08:56;15.98;;;5.75;;
52396;SDS011;38322;53.108;6.308;2023-07-31T06:11:22;20.15;;;7.28;;
52396;SDS011;38322;53.108;6.308;2023-07-31T06:13:48;16.98;;;6.18;;
52396;SDS011;38322;53.108;6.308;2023-07-31T06:16:15;15.93;;;4.85;;
52396;SDS011;38322;53.108;6.308;2023-07-31T06:18:42;12.95;;;4.63;;
52396;SDS011;38322;53.108;6.308;2023-07-31T06:21:08;21.15;;;7.15;;
52396;SDS011;38322;53.108;6.308;2023-07-31T06:23:35;23.30;;;6.15;;
52396;SDS011;38322;53.108;6.308;2023-07-31T06:26:00;19.30;;;5.80;;
52396;SDS011;38322;53.108;6.308;2023-07-31T06:28:27;20.30;;;6.55;;
52396;SDS011;38322;53.108;6.308;2023-07-31T06:30:54;16.60;;;5.57;;
52396;SDS011;38322;53.108;6.308;2023-07-31T06:33:20;16.58;;;6.28;;
52396;SDS011;38322;53.108;6.308;2023-07-31T06:35:46;15.10;;;6.45;;
52396;SDS011;38322;53.108;6.308;2023-07-31T06:38:12;16.10;;;5.63;;
52396;SDS011;38322;53.108;6.308;2023-07-31T06:40:38;15.23;;;5.00;;
52396;SDS011;38322;53.108;6.308;2023-07-31T06:43:03;13.07;;;5.20;;
52396;SDS011;38322;53.108;6.308;2023-07-31T06:45:36;16.45;;;5.95;;
52396;SDS011;38322;53.108;6.308;2023-07-31T06:48:03;14.52;;;5.05;;
52396;SDS011;38322;53.108;6.308;2023-07-31T06:50:29;15.75;;;4.88;;
52396;SDS011;38322;53.108;6.308;2023-07-31T06:52:58;15.75;;;4.45;;
52396;SDS011;38322;53.108;6.308;2023-07-31T06:55:24;16.42;;;5.93;;
52396;SDS011;38322;53.108;6.308;2023-07-31T06:57:51;14.65;;;5.22;;
52396;SDS011;38322;53.108;6.308;2023-07-31T07:00:19;16.92;;;6.03;;
52396;SDS011;38322;53.108;6.308;2023-07-31T07:02:46;22.95;;;5.15;;
52396;SDS011;38322;53.108;6.308;2023-07-31T07:05:15;15.43;;;4.47;;
52396;SDS011;38322;53.108;6.308;2023-07-31T07:07:42;15.05;;;4.55;;
52396;SDS011;38322;53.108;6.308;2023-07-31T07:10:09;15.18;;;5.45;;
52396;SDS011;38322;53.108;6.308;2023-07-31T07:12:35;14.50;;;4.47;;
52396;SDS011;38322;53.108;6.308;2023-07-31T07:15:02;13.48;;;4.57;;
52396;SDS011;38322;53.108;6.308;2023-07-31T07:17:28;10.65;;;4.57;;
52396;SDS011;38322;53.108;6.308;2023-07-31T07:19:58;16.83;;;4.93;;
52396;SDS011;38322;53.108;6.308;2023-07-31T07:22:24;6.45;;;2.67;;
52396;SDS011;38322;53.108;6.308;2023-07-31T07:24:51;11.77;;;3.75;;
52396;SDS011;38322;53.108;6.308;2023-07-31T07:27:18;5.43;;;3.13;;
52396;SDS011;38322;53.108;6.308;2023-07-31T07:29:43;7.00;;;3.40;;
52396;SDS011;38322;53.108;6.308;2023-07-31T07:32:10;8.52;;;3.58;;
52396;SDS011;38322;53.108;6.308;2023-07-31T07:34:37;5.70;;;2.83;;
52396;SDS011;38322;53.108;6.308;2023-07-31T07:37:03;8.02;;;4.20;;
52396;SDS011;38322;53.108;6.308;2023-07-31T07:39:29;10.38;;;2.65;;
52396;SDS011;38322;53.108;6.308;2023-07-31T07:41:55;3.22;;;1.58;;
52396;SDS011;38322;53.108;6.308;2023-07-31T07:44:20;2.58;;;0.93;;
52396;SDS011;38322;53.108;6.308;2023-07-31T07:46:46;3.15;;;1.10;;
52396;SDS011;38322;53.108;6.308;2023-07-31T07:49:12;1.45;;;0.57;;
52396;SDS011;38322;53.108;6.308;2023-07-31T07:51:38;2.58;;;1.65;;
52396;SDS011;38322;53.108;6.308;2023-07-31T07:54:04;2.42;;;0.68;;
52396;SDS011;38322;53.108;6.308;2023-07-31T07:56:30;1.25;;;0.40;;
52396;SDS011;38322;53.108;6.308;2023-07-31T07:58:55;2.15;;;0.47;;
52396;SDS011;38322;53.108;6.308;2023-07-31T08:01:21;2.60;;;0.70;;
52396;SDS011;38322;53.108;6.308;2023-07-31T08:03:47;1.85;;;0.77;;
52396;SDS011;38322;53.108;6.308;2023-07-31T08:06:14;1.60;;;0.43;;
52396;SDS011;38322;53.108;6.308;2023-07-31T08:08:40;1.70;;;0.63;;
52396;SDS011;38322;53.108;6.308;2023-07-31T08:11:05;1.42;;;0.30;;
52396;SDS011;38322;53.108;6.308;2023-07-31T08:13:31;1.33;;;0.20;;
52396;SDS011;38322;53.108;6.308;2023-07-31T08:15:57;0.43;;;0.20;;
52396;SDS011;38322;53.108;6.308;2023-07-31T08:18:23;0.55;;;0.35;;
52396;SDS011;38322;53.108;6.308;2023-07-31T08:20:49;1.08;;;0.30;;
52396;SDS011;38322;53.108;6.308;2023-07-31T08:23:15;1.13;;;0.20;;
52396;SDS011;38322;53.108;6.308;2023-07-31T08:25:41;0.80;;;0.35;;
52396;SDS011;38322;53.108;6.308;2023-07-31T08:28:07;2.00;;;0.20;;
52396;SDS011;38322;53.108;6.308;2023-07-31T08:30:33;1.10;;;0.38;;
52396;SDS011;38322;53.108;6.308;2023-07-31T08:32:59;0.73;;;0.25;;
52396;SDS011;38322;53.108;6.308;2023-07-31T08:35:25;0.65;;;0.35;;
52396;SDS011;38322;53.108;6.308;2023-07-31T08:37:54;0.77;;;0.45;;
52396;SDS011;38322;53.108;6.308;2023-07-31T08:40:20;0.43;;;0.35;;
52396;SDS011;38322;53.108;6.308;2023-07-31T08:42:50;1.17;;;0.75;;
52396;SDS011;38322;53.108;6.308;2023-07-31T08:45:18;2.25;;;0.10;;
52396;SDS011;38322;53.108;6.308;2023-07-31T08:47:46;0.90;;;0.20;;
52396;SDS011;38322;53.108;6.308;2023-07-31T08:50:14;0.82;;;0.10;;
52396;SDS011;38322;53.108;6.308;2023-07-31T08:52:41;0.20;;;0.10;;
52396;SDS011;38322;53.108;6.308;2023-07-31T08:55:07;0.63;;;0.20;;
52396;SDS011;38322;53.108;6.308;2023-07-31T08:57:34;0.65;;;0.20;;
52396;SDS011;38322;53.108;6.308;2023-07-31T09:00:02;0.75;;;0.10;;
52396;SDS011;38322;53.108;6.308;2023-07-31T09:02:31;0.28;;;0.10;;
52396;SDS011;38322;53.108;6.308;2023-07-31T09:05:06;0.15;;;0.10;;
52396;SDS011;38322;53.108;6.308;2023-07-31T09:07:34;0.25;;;0.10;;
52396;SDS011;38322;53.108;6.308;2023-07-31T09:10:01;1.48;;;0.08;;
52396;SDS011;38322;53.108;6.308;2023-07-31T09:12:28;0.30;;;0.00;;
52396;SDS011;38322;53.108;6.308;2023-07-31T09:14:54;0.10;;;0.00;;
52396;SDS011;38322;53.108;6.308;2023-07-31T09:17:31;0.20;;;0.10;;
52396;SDS011;38322;53.108;6.308;2023-07-31T09:19:58;0.20;;;0.10;;
52396;SDS011;38322;53.108;6.308;2023-07-31T09:22:38;0.10;;;0.00;;
52396;SDS011;38322;53.108;6.308;2023-07-31T09:25:17;0.20;;;0.20;;
52396;SDS011;38322;53.108;6.308;2023-07-31T09:27:53;0.15;;;0.10;;
52396;SDS011;38322;53.108;6.308;2023-07-31T09:32:46;0.17;;;0.05;;
52396;SDS011;38322;53.108;6.308;2023-07-31T09:35:34;0.15;;;0.00;;
52396;SDS011;38322;53.108;6.308;2023-07-31T09:38:00;0.30;;;0.10;;
52396;SDS011;38322;53.108;6.308;2023-07-31T09:40:30;0.10;;;0.00;;
52396;SDS011;38322;53.108;6.308;2023-07-31T09:42:58;0.50;;;0.00;;
52396;SDS011;38322;53.108;6.308;2023-07-31T09:45:25;0.40;;;0.03;;
52396;SDS011;38322;53.108;6.308;2023-07-31T09:47:53;0.08;;;0.00;;
52396;SDS011;38322;53.108;6.308;2023-07-31T09:50:20;0.52;;;0.00;;
52396;SDS011;38322;53.108;6.308;2023-07-31T09:52:47;0.08;;;0.00;;
52396;SDS011;38322;53.108;6.308;2023-07-31T09:55:13;0.00;;;0.00;;
52396;SDS011;38322;53.108;6.308;2023-07-31T09:57:44;0.00;;;0.00;;
52396;SDS011;38322;53.108;6.308;2023-07-31T10:00:12;1.45;;;0.00;;
52396;SDS011;38322;53.108;6.308;2023-07-31T10:02:39;0.22;;;0.10;;
52396;SDS011;38322;53.108;6.308;2023-07-31T10:05:05;1.15;;;0.00;;
52396;SDS011;38322;53.108;6.308;2023-07-31T10:07:36;0.00;;;0.00;;
52396;SDS011;38322;53.108;6.308;2023-07-31T10:10:07;0.25;;;0.00;;
52396;SDS011;38322;53.108;6.308;2023-07-31T10:12:37;0.00;;;0.00;;
52396;SDS011;38322;53.108;6.308;2023-07-31T10:15:03;0.98;;;0.00;;
52396;SDS011;38322;53.108;6.308;2023-07-31T10:17:30;0.22;;;0.05;;
52396;SDS011;38322;53.108;6.308;2023-07-31T10:19:58;0.22;;;0.08;;
52396;SDS011;38322;53.108;6.308;2023-07-31T10:22:26;1.55;;;0.00;;
52396;SDS011;38322;53.108;6.308;2023-07-31T10:24:54;0.38;;;0.00;;
52396;SDS011;38322;53.108;6.308;2023-07-31T10:27:22;0.70;;;0.10;;
52396;SDS011;38322;53.108;6.308;2023-07-31T10:29:48;0.00;;;0.00;;
52396;SDS011;38322;53.108;6.308;2023-07-31T10:32:15;0.00;;;0.00;;
52396;SDS011;38322;53.108;6.308;2023-07-31T10:34:42;0.30;;;0.00;;
52396;SDS011;38322;53.108;6.308;2023-07-31T10:37:28;0.95;;;0.00;;
52396;SDS011;38322;53.108;6.308;2023-07-31T10:40:05;0.30;;;0.00;;
52396;SDS011;38322;53.108;6.308;2023-07-31T10:42:35;2.42;;;0.22;;
52396;SDS011;38322;53.108;6.308;2023-07-31T10:45:03;0.75;;;0.00;;
52396;SDS011;38322;53.108;6.308;2023-07-31T10:47:36;2.25;;;0.22;;
52396;SDS011;38322;53.108;6.308;2023-07-31T10:50:11;1.13;;;0.40;;
52396;SDS011;38322;53.108;6.308;2023-07-31T10:52:46;0.25;;;0.10;;
52396;SDS011;38322;53.108;6.308;2023-07-31T10:57:53;2.75;;;0.10;;
52396;SDS011;38322;53.108;6.308;2023-07-31T11:00:21;1.55;;;0.05;;
52396;SDS011;38322;53.108;6.308;2023-07-31T11:02:56;3.83;;;0.10;;
52396;SDS011;38322;53.108;6.308;2023-07-31T11:05:51;1.95;;;0.20;;
52396;SDS011;38322;53.108;6.308;2023-07-31T11:08:23;0.40;;;0.10;;
52396;SDS011;38322;53.108;6.308;2023-07-31T11:11:15;0.17;;;0.10;;
52396;SDS011;38322;53.108;6.308;2023-07-31T11:13:44;0.08;;;0.08;;
52396;SDS011;38322;53.108;6.308;2023-07-31T11:16:14;0.20;;;0.10;;
52396;SDS011;38322;53.108;6.308;2023-07-31T11:18:41;0.55;;;0.20;;
52396;SDS011;38322;53.108;6.308;2023-07-31T11:21:15;3.35;;;0.10;;
52396;SDS011;38322;53.108;6.308;2023-07-31T11:23:46;0.40;;;0.10;;
52396;SDS011;38322;53.108;6.308;2023-07-31T11:26:21;1.63;;;0.20;;
52396;SDS011;38322;53.108;6.308;2023-07-31T11:28:49;0.90;;;0.20;;
52396;SDS011;38322;53.108;6.308;2023-07-31T11:31:16;0.88;;;0.20;;
52396;SDS011;38322;53.108;6.308;2023-07-31T11:33:43;0.50;;;0.10;;
52396;SDS011;38322;53.108;6.308;2023-07-31T11:36:18;0.70;;;0.10;;
52396;SDS011;38322;53.108;6.308;2023-07-31T11:38:46;0.80;;;0.20;;
52396;SDS011;38322;53.108;6.308;2023-07-31T11:41:13;1.58;;;0.20;;
52396;SDS011;38322;53.108;6.308;2023-07-31T11:43:41;1.60;;;0.50;;
52396;SDS011;38322;53.108;6.308;2023-07-31T11:46:07;1.92;;;0.60;;
52396;SDS011;38322;53.108;6.308;2023-07-31T11:48:34;1.95;;;0.40;;
52396;SDS011;38322;53.108;6.308;2023-07-31T11:51:02;1.10;;;0.30;;
52396;SDS011;38322;53.108;6.308;2023-07-31T11:53:43;2.30;;;0.38;;
52396;SDS011;38322;53.108;6.308;2023-07-31T11:56:16;1.25;;;0.40;;
52396;SDS011;38322;53.108;6.308;2023-07-31T11:58:45;2.25;;;0.50;;
52396;SDS011;38322;53.108;6.308;2023-07-31T12:01:16;2.05;;;0.40;;
52396;SDS011;38322;53.108;6.308;2023-07-31T12:03:45;2.90;;;0.40;;
52396;SDS011;38322;53.108;6.308;2023-07-31T12:06:12;1.17;;;0.30;;
52396;SDS011;38322;53.108;6.308;2023-07-31T12:08:38;3.20;;;0.88;;
52396;SDS011;38322;53.108;6.308;2023-07-31T12:11:05;1.33;;;0.60;;
52396;SDS011;38322;53.108;6.308;2023-07-31T12:13:32;3.47;;;0.70;;
52396;SDS011;38322;53.108;6.308;2023-07-31T12:16:02;3.85;;;0.98;;
52396;SDS011;38322;53.108;6.308;2023-07-31T12:18:30;6.07;;;1.02;;
52396;SDS011;38322;53.108;6.308;2023-07-31T12:21:02;4.80;;;1.05;;
52396;SDS011;38322;53.108;6.308;2023-07-31T12:23:31;2.13;;;0.57;;
52396;SDS011;38322;53.108;6.308;2023-07-31T12:28:27;2.55;;;0.82;;
52396;SDS011;38322;53.108;6.308;2023-07-31T12:30:56;4.63;;;1.77;;
52396;SDS011;38322;53.108;6.308;2023-07-31T12:33:33;7.00;;;1.52;;
52396;SDS011;38322;53.108;6.308;2023-07-31T12:36:01;6.28;;;1.90;;
52396;SDS011;38322;53.108;6.308;2023-07-31T12:38:29;8.15;;;2.15;;
52396;SDS011;38322;53.108;6.308;2023-07-31T12:40:56;7.05;;;1.77;;
52396;SDS011;38322;53.108;6.308;2023-07-31T12:43:22;4.80;;;1.52;;
52396;SDS011;38322;53.108;6.308;2023-07-31T12:45:48;7.53;;;1.52;;
52396;SDS011;38322;53.108;6.308;2023-07-31T12:48:14;3.42;;;1.55;;
52396;SDS011;38322;53.108;6.308;2023-07-31T12:50:40;6.35;;;1.58;;
52396;SDS011;38322;53.108;6.308;2023-07-31T12:53:06;5.82;;;1.95;;
52396;SDS011;38322;53.108;6.308;2023-07-31T12:55:32;6.57;;;1.90;;
52396;SDS011;38322;53.108;6.308;2023-07-31T12:58:00;4.15;;;1.70;;
52396;SDS011;38322;53.108;6.308;2023-07-31T13:00:26;10.15;;;2.05;;
52396;SDS011;38322;53.108;6.308;2023-07-31T13:02:52;8.85;;;1.95;;
52396;SDS011;38322;53.108;6.308;2023-07-31T13:05:18;3.67;;;1.10;;
52396;SDS011;38322;53.108;6.308;2023-07-31T13:07:45;9.10;;;1.55;;
52396;SDS011;38322;53.108;6.308;2023-07-31T13:10:12;8.77;;;1.80;;
52396;SDS011;38322;53.108;6.308;2023-07-31T13:12:39;4.80;;;1.67;;
52396;SDS011;38322;53.108;6.308;2023-07-31T13:15:05;4.70;;;1.95;;
52396;SDS011;38322;53.108;6.308;2023-07-31T13:17:32;5.13;;;2.97;;
52396;SDS011;38322;53.108;6.308;2023-07-31T13:19:58;8.20;;;2.80;;
52396;SDS011;38322;53.108;6.308;2023-07-31T13:22:24;8.00;;;2.47;;
52396;SDS011;38322;53.108;6.308;2023-07-31T13:24:50;6.93;;;2.50;;
52396;SDS011;38322;53.108;6.308;2023-07-31T13:27:16;6.90;;;2.40;;
52396;SDS011;38322;53.108;6.308;2023-07-31T13:29:44;10.98;;;2.33;;
52396;SDS011;38322;53.108;6.308;2023-07-31T13:32:10;6.22;;;2.60;;
52396;SDS011;38322;53.108;6.308;2023-07-31T13:34:36;8.60;;;1.90;;
52396;SDS011;38322;53.108;6.308;2023-07-31T13:37:02;8.38;;;2.67;;
52396;SDS011;38322;53.108;6.308;2023-07-31T13:39:28;6.35;;;1.40;;
52396;SDS011;38322;53.108;6.308;2023-07-31T13:41:54;9.68;;;1.65;;
52396;SDS011;38322;53.108;6.308;2023-07-31T13:44:20;3.78;;;1.35;;
52396;SDS011;38322;53.108;6.308;2023-07-31T13:46:46;6.35;;;2.70;;
52396;SDS011;38322;53.108;6.308;2023-07-31T13:49:12;5.72;;;1.60;;
52396;SDS011;38322;53.108;6.308;2023-07-31T13:51:38;5.68;;;1.35;;
52396;SDS011;38322;53.108;6.308;2023-07-31T13:54:04;5.70;;;1.33;;
52396;SDS011;38322;53.108;6.308;2023-07-31T13:56:32;6.60;;;2.30;;
52396;SDS011;38322;53.108;6.308;2023-07-31T13:58:57;4.25;;;1.63;;
52396;SDS011;38322;53.108;6.308;2023-07-31T14:01:23;5.65;;;1.42;;
52396;SDS011;38322;53.108;6.308;2023-07-31T14:03:49;6.15;;;1.45;;
52396;SDS011;38322;53.108;6.308;2023-07-31T14:06:15;9.55;;;2.50;;
52396;SDS011;38322;53.108;6.308;2023-07-31T14:08:41;7.40;;;3.47;;
52396;SDS011;38322;53.108;6.308;2023-07-31T14:11:07;8.35;;;1.90;;
52396;SDS011;38322;53.108;6.308;2023-07-31T14:13:33;7.30;;;2.42;;
52396;SDS011;38322;53.108;6.308;2023-07-31T14:15:58;5.07;;;1.77;;
52396;SDS011;38322;53.108;6.308;2023-07-31T14:18:24;11.10;;;2.20;;
52396;SDS011;38322;53.108;6.308;2023-07-31T14:20:51;5.35;;;2.67;;
52396;SDS011;38322;53.108;6.308;2023-07-31T14:23:16;9.52;;;2.28;;
52396;SDS011;38322;53.108;6.308;2023-07-31T14:25:42;8.40;;;1.98;;
52396;SDS011;38322;53.108;6.308;2023-07-31T14:28:08;11.35;;;2.85;;
52396;SDS011;38322;53.108;6.308;2023-07-31T14:30:34;8.10;;;2.15;;
52396;SDS011;38322;53.108;6.308;2023-07-31T14:33:00;11.52;;;4.25;;
52396;SDS011;38322;53.108;6.308;2023-07-31T14:35:27;8.00;;;2.97;;
52396;SDS011;38322;53.108;6.308;2023-07-31T14:37:53;9.70;;;3.13;;
52396;SDS011;38322;53.108;6.308;2023-07-31T14:40:19;9.93;;;3.58;;
52396;SDS011;38322;53.108;6.308;2023-07-31T14:42:45;6.75;;;2.50;;
52396;SDS011;38322;53.108;6.308;2023-07-31T14:45:11;7.57;;;2.42;;
52396;SDS011;38322;53.108;6.308;2023-07-31T14:47:37;11.32;;;3.70;;
52396;SDS011;38322;53.108;6.308;2023-07-31T14:50:03;11.40;;;2.45;;
52396;SDS011;38322;53.108;6.308;2023-07-31T14:52:29;10.55;;;3.88;;
52396;SDS011;38322;53.108;6.308;2023-07-31T14:54:55;7.80;;;2.45;;
52396;SDS011;38322;53.108;6.308;2023-07-31T14:57:21;9.30;;;2.85;;
52396;SDS011;38322;53.108;6.308;2023-07-31T14:59:47;5.90;;;2.90;;
52396;SDS011;38322;53.108;6.308;2023-07-31T15:02:14;9.68;;;2.42;;
52396;SDS011;38322;53.108;6.308;2023-07-31T15:04:40;11.32;;;3.00;;
52396;SDS011;38322;53.108;6.308;2023-07-31T15:07:07;6.07;;;2.25;;
52396;SDS011;38322;53.108;6.308;2023-07-31T15:09:33;10.20;;;2.67;;
52396;SDS011;38322;53.108;6.308;2023-07-31T15:11:59;5.90;;;2.45;;
52396;SDS011;38322;53.108;6.308;2023-07-31T15:14:25;6.45;;;2.47;;
52396;SDS011;38322;53.108;6.308;2023-07-31T15:16:52;3.83;;;2.03;;
52396;SDS011;38322;53.108;6.308;2023-07-31T15:19:18;9.23;;;3.90;;
52396;SDS011;38322;53.108;6.308;2023-07-31T15:21:44;8.70;;;2.28;;
52396;SDS011;38322;53.108;6.308;2023-07-31T15:24:10;6.22;;;2.13;;
52396;SDS011;38322;53.108;6.308;2023-07-31T15:26:36;5.45;;;1.85;;
52396;SDS011;38322;53.108;6.308;2023-07-31T15:29:04;6.95;;;2.63;;
52396;SDS011;38322;53.108;6.308;2023-07-31T15:31:39;7.37;;;1.53;;
52396;SDS011;38322;53.108;6.308;2023-07-31T15:34:06;6.57;;;3.03;;
52396;SDS011;38322;53.108;6.308;2023-07-31T15:36:32;6.20;;;3.10;;
52396;SDS011;38322;53.108;6.308;2023-07-31T15:38:58;8.73;;;4.13;;
52396;SDS011;38322;53.108;6.308;2023-07-31T15:41:24;10.27;;;2.53;;
52396;SDS011;38322;53.108;6.308;2023-07-31T15:43:50;6.68;;;2.20;;
52396;SDS011;38322;53.108;6.308;2023-07-31T15:46:17;5.95;;;1.90;;
52396;SDS011;38322;53.108;6.308;2023-07-31T15:48:43;7.25;;;1.58;;
52396;SDS011;38322;53.108;6.308;2023-07-31T15:51:09;6.75;;;1.80;;
52396;SDS011;38322;53.108;6.308;2023-07-31T15:53:35;5.18;;;1.40;;
52396;SDS011;38322;53.108;6.308;2023-07-31T15:56:02;7.20;;;1.67;;
52396;SDS011;38322;53.108;6.308;2023-07-31T15:58:28;6.53;;;1.52;;
52396;SDS011;38322;53.108;6.308;2023-07-31T16:00:54;6.15;;;1.20;;
52396;SDS011;38322;53.108;6.308;2023-07-31T16:03:20;5.00;;;1.35;;
52396;SDS011;38322;53.108;6.308;2023-07-31T16:05:47;5.90;;;1.90;;
52396;SDS011;38322;53.108;6.308;2023-07-31T16:08:13;3.97;;;1.00;;
52396;SDS011;38322;53.108;6.308;2023-07-31T16:10:39;11.13;;;2.00;;
52396;SDS011;38322;53.108;6.308;2023-07-31T16:13:05;7.88;;;1.85;;
52396;SDS011;38322;53.108;6.308;2023-07-31T16:15:31;7.90;;;1.10;;
52396;SDS011;38322;53.108;6.308;2023-07-31T16:17:57;6.13;;;1.20;;
52396;SDS011;38322;53.108;6.308;2023-07-31T16:20:23;6.65;;;1.65;;
52396;SDS011;38322;53.108;6.308;2023-07-31T16:22:49;3.90;;;1.15;;
52396;SDS011;38322;53.108;6.308;2023-07-31T16:25:16;6.35;;;2.35;;
52396;SDS011;38322;53.108;6.308;2023-07-31T16:27:42;8.25;;;2.35;;
52396;SDS011;38322;53.108;6.308;2023-07-31T16:30:08;4.00;;;1.40;;
52396;SDS011;38322;53.108;6.308;2023-07-31T16:32:35;6.10;;;2.03;;
52396;SDS011;38322;53.108;6.308;2023-07-31T16:35:02;8.93;;;1.52;;
52396;SDS011;38322;53.108;6.308;2023-07-31T16:37:28;5.82;;;1.88;;
52396;SDS011;38322;53.108;6.308;2023-07-31T16:39:54;5.40;;;1.70;;
52396;SDS011;38322;53.108;6.308;2023-07-31T16:42:21;5.47;;;1.73;;
52396;SDS011;38322;53.108;6.308;2023-07-31T16:44:47;8.63;;;1.25;;
52396;SDS011;38322;53.108;6.308;2023-07-31T16:47:13;5.35;;;2.08;;
52396;SDS011;38322;53.108;6.308;2023-07-31T16:49:40;2.97;;;1.25;;
52396;SDS011;38322;53.108;6.308;2023-07-31T16:52:06;10.55;;;2.20;;
52396;SDS011;38322;53.108;6.308;2023-07-31T16:54:32;6.82;;;1.63;;
52396;SDS011;38322;53.108;6.308;2023-07-31T16:56:58;6.22;;;1.30;;
52396;SDS011;38322;53.108;6.308;2023-07-31T16:59:24;4.63;;;1.55;;
52396;SDS011;38322;53.108;6.308;2023-07-31T17:01:50;8.25;;;1.55;;
52396;SDS011;38322;53.108;6.308;2023-07-31T17:04:16;5.50;;;1.52;;
52396;SDS011;38322;53.108;6.308;2023-07-31T17:06:42;6.20;;;2.08;;
52396;SDS011;38322;53.108;6.308;2023-07-31T17:09:09;6.15;;;1.02;;
52396;SDS011;38322;53.108;6.308;2023-07-31T17:11:35;6.18;;;2.28;;
52396;SDS011;38322;53.108;6.308;2023-07-31T17:14:01;8.57;;;1.60;;
52396;SDS011;38322;53.108;6.308;2023-07-31T17:16:31;3.40;;;1.55;;
52396;SDS011;38322;53.108;6.308;2023-07-31T17:19:00;4.18;;;1.30;;
52396;SDS011;38322;53.108;6.308;2023-07-31T17:21:26;4.80;;;1.90;;
52396;SDS011;38322;53.108;6.308;2023-07-31T17:23:53;4.22;;;1.38;;
52396;SDS011;38322;53.108;6.308;2023-07-31T17:26:19;5.00;;;1.48;;
52396;SDS011;38322;53.108;6.308;2023-07-31T17:28:45;3.38;;;1.52;;
52396;SDS011;38322;53.108;6.308;2023-07-31T17:31:11;6.18;;;1.45;;
52396;SDS011;38322;53.108;6.308;2023-07-31T17:33:38;6.80;;;2.92;;
52396;SDS011;38322;53.108;6.308;2023-07-31T17:36:05;3.13;;;1.83;;
52396;SDS011;38322;53.108;6.308;2023-07-31T17:38:30;7.13;;;1.83;;
52396;SDS011;38322;53.108;6.308;2023-07-31T17:40:56;5.90;;;1.67;;
52396;SDS011;38322;53.108;6.308;2023-07-31T17:43:22;5.18;;;1.75;;
52396;SDS011;38322;53.108;6.308;2023-07-31T17:45:49;4.53;;;1.52;;
52396;SDS011;38322;53.108;6.308;2023-07-31T17:48:16;6.78;;;2.20;;
52396;SDS011;38322;53.108;6.308;2023-07-31T17:50:41;10.88;;;1.75;;
52396;SDS011;38322;53.108;6.308;2023-07-31T17:53:08;4.38;;;1.15;;
52396;SDS011;38322;53.108;6.308;2023-07-31T17:55:34;8.30;;;1.58;;
52396;SDS011;38322;53.108;6.308;2023-07-31T17:58:00;6.10;;;1.98;;
52396;SDS011;38322;53.108;6.308;2023-07-31T18:00:26;7.13;;;2.40;;
52396;SDS011;38322;53.108;6.308;2023-07-31T18:02:51;6.38;;;1.40;;
52396;SDS011;38322;53.108;6.308;2023-07-31T18:05:17;6.13;;;1.90;;
52396;SDS011;38322;53.108;6.308;2023-07-31T18:07:43;3.10;;;1.17;;
52396;SDS011;38322;53.108;6.308;2023-07-31T18:10:09;5.72;;;2.42;;
52396;SDS011;38322;53.108;6.308;2023-07-31T18:12:38;4.10;;;2.28;;
52396;SDS011;38322;53.108;6.308;2023-07-31T18:15:04;6.68;;;1.50;;
52396;SDS011;38322;53.108;6.308;2023-07-31T18:17:30;3.95;;;2.10;;
52396;SDS011;38322;53.108;6.308;2023-07-31T18:19:56;10.57;;;2.17;;
52396;SDS011;38322;53.108;6.308;2023-07-31T18:22:22;3.42;;;1.90;;
52396;SDS011;38322;53.108;6.308;2023-07-31T18:24:48;4.63;;;1.90;;
52396;SDS011;38322;53.108;6.308;2023-07-31T18:27:14;5.90;;;1.73;;
52396;SDS011;38322;53.108;6.308;2023-07-31T18:29:40;11.35;;;1.85;;
52396;SDS011;38322;53.108;6.308;2023-07-31T18:32:06;6.05;;;2.55;;
52396;SDS011;38322;53.108;6.308;2023-07-31T18:34:33;5.65;;;2.35;;
52396;SDS011;38322;53.108;6.308;2023-07-31T18:36:59;6.13;;;1.92;;
52396;SDS011;38322;53.108;6.308;2023-07-31T18:39:25;7.40;;;1.67;;
52396;SDS011;38322;53.108;6.308;2023-07-31T18:41:51;10.85;;;2.70;;
52396;SDS011;38322;53.108;6.308;2023-07-31T18:44:17;7.30;;;2.33;;
52396;SDS011;38322;53.108;6.308;2023-07-31T18:46:43;7.97;;;2.08;;
52396;SDS011;38322;53.108;6.308;2023-07-31T18:49:09;5.68;;;2.38;;
52396;SDS011;38322;53.108;6.308;2023-07-31T18:51:35;5.97;;;1.98;;
52396;SDS011;38322;53.108;6.308;2023-07-31T18:54:03;10.80;;;3.22;;
52396;SDS011;38322;53.108;6.308;2023-07-31T18:56:29;9.60;;;1.75;;
52396;SDS011;38322;53.108;6.308;2023-07-31T18:58:55;14.00;;;2.83;;
52396;SDS011;38322;53.108;6.308;2023-07-31T19:01:22;5.10;;;1.92;;
52396;SDS011;38322;53.108;6.308;2023-07-31T19:03:49;8.02;;;1.65;;
52396;SDS011;38322;53.108;6.308;2023-07-31T19:06:15;12.00;;;2.67;;
52396;SDS011;38322;53.108;6.308;2023-07-31T19:08:41;3.50;;;1.45;;
52396;SDS011;38322;53.108;6.308;2023-07-31T19:11:07;8.07;;;2.63;;
52396;SDS011;38322;53.108;6.308;2023-07-31T19:13:36;6.72;;;1.70;;
52396;SDS011;38322;53.108;6.308;2023-07-31T19:16:03;9.35;;;2.60;;
52396;SDS011;38322;53.108;6.308;2023-07-31T19:18:29;10.85;;;3.50;;
52396;SDS011;38322;53.108;6.308;2023-07-31T19:20:55;10.07;;;3.05;;
52396;SDS011;38322;53.108;6.308;2023-07-31T19:23:21;12.15;;;2.80;;
52396;SDS011;38322;53.108;6.308;2023-07-31T19:25:47;8.60;;;2.42;;
52396;SDS011;38322;53.108;6.308;2023-07-31T19:28:13;11.48;;;3.40;;
52396;SDS011;38322;53.108;6.308;2023-07-31T19:30:40;7.38;;;2.20;;
52396;SDS011;38322;53.108;6.308;2023-07-31T19:33:06;7.63;;;1.98;;
52396;SDS011;38322;53.108;6.308;2023-07-31T19:35:32;5.03;;;2.05;;
52396;SDS011;38322;53.108;6.308;2023-07-31T19:37:58;6.75;;;3.15;;
52396;SDS011;38322;53.108;6.308;2023-07-31T19:40:24;9.88;;;2.28;;
52396;SDS011;38322;53.108;6.308;2023-07-31T19:42:51;6.00;;;2.23;;
52396;SDS011;38322;53.108;6.308;2023-07-31T19:45:17;10.10;;;2.78;;
52396;SDS011;38322;53.108;6.308;2023-07-31T19:47:43;4.65;;;2.00;;
52396;SDS011;38322;53.108;6.308;2023-07-31T19:50:09;8.25;;;1.70;;
52396;SDS011;38322;53.108;6.308;2023-07-31T19:52:35;7.63;;;2.33;;